General Aviation Weather

Text Reports

Enter one or more of the following location identifiers separated by a space:

Zip Code, Four-Character ICAO or Three-Character IATA airport codes.

METAR - Aviation Routine Weather Report
VTBD - Bangkok (Don Mueang),
Updated at 9:30 AM GMT on December 09, 2016 (4:30 PM ICT):
METAR VTBD 090930Z 03005KT 350V070 9999 FEW030 31/18 Q1007 NOSIG
TAF - Terminal Area Forecast
VTBD - Bangkok (Don Mueang),
Updated at 9:30 AM GMT on December 09, 2016 (4:30 PM ICT):
No TAF is currently available for this location.
Decoded:
No decoded TAF is available.
PIREP - Pilot Weather Report
VTBD - Bangkok (Don Mueang),
Updated at 9:30 AM GMT on December 09, 2016 (4:30 PM ICT):
No PIREP is currently available for this location.
AIRMET - Airmens Meteorological Information
VTBD - Bangkok (Don Mueang),
Updated at 9:30 AM GMT on December 09, 2016 (4:30 PM ICT):
No AIRMET is currently available for this location.
SIGMET - Significant Meteorological Information
VTBD - Bangkok (Don Mueang),
Updated at 9:30 AM GMT on December 09, 2016 (4:30 PM ICT):
No SIGMET is currently available for this location.
NOTAM - Notice to Airmen
VTBD - Bangkok (Don Mueang),
Updated at 9:30 AM GMT on December 09, 2016 (4:30 PM ICT):
No NOTAM is currently available for this location.
Forecast Area
VTBD - Bangkok (Don Mueang),
Updated at 9:30 AM GMT on December 09, 2016 (4:30 PM ICT):
No NOTAM is currently available for this location.
Aviation Weather Maps